sensor_id;sensor_type;location;lat;lon;timestamp;temperature;humidity
23124;DHT22;11731;48.592;8.858;2022-12-22T04:44:56;10.80;99.90
23124;DHT22;11731;48.592;8.858;2022-12-22T04:47:23;10.80;99.90
23124;DHT22;11731;48.592;8.858;2022-12-22T04:49:50;10.80;99.90
23124;DHT22;11731;48.592;8.858;2022-12-22T04:52:17;10.60;99.90
23124;DHT22;11731;48.592;8.858;2022-12-22T04:54:44;10.50;99.90
23124;DHT22;11731;48.592;8.858;2022-12-22T04:57:11;10.30;99.90
23124;DHT22;11731;48.592;8.858;2022-12-22T04:59:38;10.10;99.90
23124;DHT22;11731;48.592;8.858;2022-12-22T05:02:20;10.00;99.90
23124;DHT22;11731;48.592;8.858;2022-12-22T05:07:58;10.30;99.90
23124;DHT22;11731;48.592;8.858;2022-12-22T05:10:25;10.10;99.90
23124;DHT22;11731;48.592;8.858;2022-12-22T05:12:52;10.30;99.90
23124;DHT22;11731;48.592;8.858;2022-12-22T05:15:23;10.30;99.90
23124;DHT22;11731;48.592;8.858;2022-12-22T05:17:52;10.60;99.90
23124;DHT22;11731;48.592;8.858;2022-12-22T05:20:19;10.60;99.90
23124;DHT22;11731;48.592;8.858;2022-12-22T05:22:46;10.60;99.90
23124;DHT22;11731;48.592;8.858;2022-12-22T05:25:14;10.50;99.90
23124;DHT22;11731;48.592;8.858;2022-12-22T05:27:42;10.30;99.90
23124;DHT22;11731;48.592;8.858;2022-12-22T05:30:10;10.20;99.90
23124;DHT22;11731;48.592;8.858;2022-12-22T05:32:45;10.00;99.90
23124;DHT22;11731;48.592;8.858;2022-12-22T05:35:18;10.20;99.90
23124;DHT22;11731;48.592;8.858;2022-12-22T05:37:47;10.40;99.90
23124;DHT22;11731;48.592;8.858;2022-12-22T05:40:44;10.50;99.90
23124;DHT22;11731;48.592;8.858;2022-12-22T05:43:11;10.40;99.90
23124;DHT22;11731;48.592;8.858;2022-12-22T05:45:37;10.50;99.90
23124;DHT22;11731;48.592;8.858;2022-12-22T05:48:05;10.40;99.90
23124;DHT22;11731;48.592;8.858;2022-12-22T05:50:33;10.30;99.90
23124;DHT22;11731;48.592;8.858;2022-12-22T05:53:00;10.30;99.90
23124;DHT22;11731;48.592;8.858;2022-12-22T05:55:27;10.40;99.90
23124;DHT22;11731;48.592;8.858;2022-12-22T05:57:54;10.50;99.90
23124;DHT22;11731;48.592;8.858;2022-12-22T06:00:21;10.50;99.90
23124;DHT22;11731;48.592;8.858;2022-12-22T06:02:48;10.60;99.90
23124;DHT22;11731;48.592;8.858;2022-12-22T06:05:15;10.60;99.90
23124;DHT22;11731;48.592;8.858;2022-12-22T06:07:43;10.50;99.90
23124;DHT22;11731;48.592;8.858;2022-12-22T06:10:13;10.50;99.90
23124;DHT22;11731;48.592;8.858;2022-12-22T06:13:01;10.70;99.90
23124;DHT22;11731;48.592;8.858;2022-12-22T06:15:42;10.90;99.90
23124;DHT22;11731;48.592;8.858;2022-12-22T06:18:09;10.80;99.90
23124;DHT22;11731;48.592;8.858;2022-12-22T06:20:39;10.60;99.90
23124;DHT22;11731;48.592;8.858;2022-12-22T06:23:07;10.70;99.90
23124;DHT22;11731;48.592;8.858;2022-12-22T06:25:34;10.70;99.90
23124;DHT22;11731;48.592;8.858;2022-12-22T06:28:01;10.90;99.90
23124;DHT22;11731;48.592;8.858;2022-12-22T06:30:28;10.80;99.90
23124;DHT22;11731;48.592;8.858;2022-12-22T06:32:55;11.30;99.90
23124;DHT22;11731;48.592;8.858;2022-12-22T06:35:22;11.70;99.90
23124;DHT22;11731;48.592;8.858;2022-12-22T06:37:48;12.00;99.90
23124;DHT22;11731;48.592;8.858;2022-12-22T06:40:28;11.90;99.90
23124;DHT22;11731;48.592;8.858;2022-12-22T06:43:05;11.90;99.90
23124;DHT22;11731;48.592;8.858;2022-12-22T06:45:36;12.00;99.90
23124;DHT22;11731;48.592;8.858;2022-12-22T06:48:11;11.60;99.90
23124;DHT22;11731;48.592;8.858;2022-12-22T06:50:38;11.40;99.90
23124;DHT22;11731;48.592;8.858;2022-12-22T06:53:06;11.40;99.90
23124;DHT22;11731;48.592;8.858;2022-12-22T06:55:34;11.50;99.90
23124;DHT22;11731;48.592;8.858;2022-12-22T06:58:01;11.30;99.90
23124;DHT22;11731;48.592;8.858;2022-12-22T07:00:28;11.10;99.90
23124;DHT22;11731;48.592;8.858;2022-12-22T07:04:29;10.70;99.90
23124;DHT22;11731;48.592;8.858;2022-12-22T07:06:55;10.60;99.90
23124;DHT22;11731;48.592;8.858;2022-12-22T07:09:22;10.30;99.90
23124;DHT22;11731;48.592;8.858;2022-12-22T07:11:50;10.40;99.90
23124;DHT22;11731;48.592;8.858;2022-12-22T07:14:17;10.50;99.90
23124;DHT22;11731;48.592;8.858;2022-12-22T07:16:47;10.40;99.90
23124;DHT22;11731;48.592;8.858;2022-12-22T07:19:34;10.60;99.90
23124;DHT22;11731;48.592;8.858;2022-12-22T07:22:01;10.50;99.90
23124;DHT22;11731;48.592;8.858;2022-12-22T07:24:28;10.30;99.90
23124;DHT22;11731;48.592;8.858;2022-12-22T07:26:59;10.30;99.90
23124;DHT22;11731;48.592;8.858;2022-12-22T07:29:26;10.20;99.90
23124;DHT22;11731;48.592;8.858;2022-12-22T07:31:53;10.20;99.90
23124;DHT22;11731;48.592;8.858;2022-12-22T07:34:20;10.30;99.90
23124;DHT22;11731;48.592;8.858;2022-12-22T07:37:19;10.30;99.90
23124;DHT22;11731;48.592;8.858;2022-12-22T07:39:46;10.40;99.90
23124;DHT22;11731;48.592;8.858;2022-12-22T07:42:43;10.40;99.90
23124;DHT22;11731;48.592;8.858;2022-12-22T07:45:17;10.50;99.90
23124;DHT22;11731;48.592;8.858;2022-12-22T07:47:47;10.50;99.90
23124;DHT22;11731;48.592;8.858;2022-12-22T07:50:15;10.40;99.90
23124;DHT22;11731;48.592;8.858;2022-12-22T07:52:50;10.40;99.90
23124;DHT22;11731;48.592;8.858;2022-12-22T07:57:37;10.20;99.90
23124;DHT22;11731;48.592;8.858;2022-12-22T07:58:30;10.30;99.90
23124;DHT22;11731;48.592;8.858;2022-12-22T08:01:12;10.70;99.90
23124;DHT22;11731;48.592;8.858;2022-12-22T08:03:39;10.60;99.90
23124;DHT22;11731;48.592;8.858;2022-12-22T08:06:06;10.50;99.90
23124;DHT22;11731;48.592;8.858;2022-12-22T08:08:33;10.50;99.90
23124;DHT22;11731;48.592;8.858;2022-12-22T08:11:00;10.40;99.90
23124;DHT22;11731;48.592;8.858;2022-12-22T08:13:27;10.60;99.90
23124;DHT22;11731;48.592;8.858;2022-12-22T08:16:01;10.70;99.90
23124;DHT22;11731;48.592;8.858;2022-12-22T08:18:29;10.60;99.90
23124;DHT22;11731;48.592;8.858;2022-12-22T08:20:56;10.60;99.90
23124;DHT22;11731;48.592;8.858;2022-12-22T08:23:24;10.40;99.90
23124;DHT22;11731;48.592;8.858;2022-12-22T08:25:58;10.40;99.90
23124;DHT22;11731;48.592;8.858;2022-12-22T08:29:04;10.50;99.90
23124;DHT22;11731;48.592;8.858;2022-12-22T08:31:34;10.60;99.90
23124;DHT22;11731;48.592;8.858;2022-12-22T08:34:05;11.00;99.90
23124;DHT22;11731;48.592;8.858;2022-12-22T08:36:35;11.10;99.90
23124;DHT22;11731;48.592;8.858;2022-12-22T08:39:11;10.90;99.90
23124;DHT22;11731;48.592;8.858;2022-12-22T08:41:43;11.10;99.90
23124;DHT22;11731;48.592;8.858;2022-12-22T08:44:16;11.40;99.90
23124;DHT22;11731;48.592;8.858;2022-12-22T08:46:45;11.10;99.90
23124;DHT22;11731;48.592;8.858;2022-12-22T08:49:12;11.10;99.90
23124;DHT22;11731;48.592;8.858;2022-12-22T08:51:39;11.20;99.90
23124;DHT22;11731;48.592;8.858;2022-12-22T08:54:06;11.30;99.90
23124;DHT22;11731;48.592;8.858;2022-12-22T08:56:39;11.20;99.90
23124;DHT22;11731;48.592;8.858;2022-12-22T08:59:31;11.00;99.90
23124;DHT22;11731;48.592;8.858;2022-12-22T09:02:05;10.90;99.90
23124;DHT22;11731;48.592;8.858;2022-12-22T09:04:35;11.10;99.90
23124;DHT22;11731;48.592;8.858;2022-12-22T09:07:22;10.80;99.90
23124;DHT22;11731;48.592;8.858;2022-12-22T09:10:10;10.70;99.90
23124;DHT22;11731;48.592;8.858;2022-12-22T09:13:42;10.40;99.90
23124;DHT22;11731;48.592;8.858;2022-12-22T09:15:52;10.20;99.90
23124;DHT22;11731;48.592;8.858;2022-12-22T09:22:13;9.80;99.90
23124;DHT22;11731;48.592;8.858;2022-12-22T09:24:43;9.70;99.90
23124;DHT22;11731;48.592;8.858;2022-12-22T09:27:23;9.70;99.90
23124;DHT22;11731;48.592;8.858;2022-12-22T09:29:50;9.80;99.90
23124;DHT22;11731;48.592;8.858;2022-12-22T09:33:02;9.80;99.90
23124;DHT22;11731;48.592;8.858;2022-12-22T09:35:45;9.80;99.90
23124;DHT22;11731;48.592;8.858;2022-12-22T09:38:27;9.90;99.90
23124;DHT22;11731;48.592;8.858;2022-12-22T09:40:55;10.10;99.90
23124;DHT22;11731;48.592;8.858;2022-12-22T09:43:28;10.20;99.90
23124;DHT22;11731;48.592;8.858;2022-12-22T09:48:33;10.10;99.90
23124;DHT22;11731;48.592;8.858;2022-12-22T09:49:40;10.20;99.90
23124;DHT22;11731;48.592;8.858;2022-12-22T09:53:16;10.20;99.90
23124;DHT22;11731;48.592;8.858;2022-12-22T09:59:08;9.90;99.90
23124;DHT22;11731;48.592;8.858;2022-12-22T10:04:55;10.20;99.90
23124;DHT22;11731;48.592;8.858;2022-12-22T10:07:31;9.80;99.90
23124;DHT22;11731;48.592;8.858;2022-12-22T10:10:04;9.80;99.90
23124;DHT22;11731;48.592;8.858;2022-12-22T10:12:31;9.80;99.90
23124;DHT22;11731;48.592;8.858;2022-12-22T10:14:59;9.90;99.90
23124;DHT22;11731;48.592;8.858;2022-12-22T10:17:43;10.00;99.90
23124;DHT22;11731;48.592;8.858;2022-12-22T10:20:30;10.10;99.90
23124;DHT22;11731;48.592;8.858;2022-12-22T10:22:58;10.20;99.90
23124;DHT22;11731;48.592;8.858;2022-12-22T10:25:34;10.20;99.90
23124;DHT22;11731;48.592;8.858;2022-12-22T10:28:11;10.00;99.90
23124;DHT22;11731;48.592;8.858;2022-12-22T10:31:17;10.20;99.90
23124;DHT22;11731;48.592;8.858;2022-12-22T10:33:48;10.20;99.90
23124;DHT22;11731;48.592;8.858;2022-12-22T10:36:21;10.20;99.90
23124;DHT22;11731;48.592;8.858;2022-12-22T10:38:55;10.30;99.90
23124;DHT22;11731;48.592;8.858;2022-12-22T10:41:39;10.40;99.90
23124;DHT22;11731;48.592;8.858;2022-12-22T10:44:21;10.40;99.90
23124;DHT22;11731;48.592;8.858;2022-12-22T10:46:52;10.20;99.90
23124;DHT22;11731;48.592;8.858;2022-12-22T10:49:22;10.30;99.90
23124;DHT22;11731;48.592;8.858;2022-12-22T10:51:51;10.30;99.90
23124;DHT22;11731;48.592;8.858;2022-12-22T10:54:24;10.20;99.90
23124;DHT22;11731;48.592;8.858;2022-12-22T10:57:03;10.40;99.90
23124;DHT22;11731;48.592;8.858;2022-12-22T10:59:31;10.50;99.90
23124;DHT22;11731;48.592;8.858;2022-12-22T11:02:30;10.40;99.90
23124;DHT22;11731;48.592;8.858;2022-12-22T11:05:05;10.60;99.90
23124;DHT22;11731;48.592;8.858;2022-12-22T11:07:35;10.50;99.90
23124;DHT22;11731;48.592;8.858;2022-12-22T11:10:10;10.50;99.90
23124;DHT22;11731;48.592;8.858;2022-12-22T11:15:38;10.80;99.90
23124;DHT22;11731;48.592;8.858;2022-12-22T11:18:23;10.90;99.90
23124;DHT22;11731;48.592;8.858;2022-12-22T11:21:00;10.80;99.90
23124;DHT22;11731;48.592;8.858;2022-12-22T11:23:34;10.60;99.90
23124;DHT22;11731;48.592;8.858;2022-12-22T11:26:10;10.60;99.90
23124;DHT22;11731;48.592;8.858;2022-12-22T11:29:18;10.60;99.90
23124;DHT22;11731;48.592;8.858;2022-12-22T11:31:59;10.80;99.90
23124;DHT22;11731;48.592;8.858;2022-12-22T11:34:42;11.00;99.90
23124;DHT22;11731;48.592;8.858;2022-12-22T11:37:27;11.30;99.90
23124;DHT22;11731;48.592;8.858;2022-12-22T11:39:59;11.40;99.90
23124;DHT22;11731;48.592;8.858;2022-12-22T11:42:40;11.50;99.90
23124;DHT22;11731;48.592;8.858;2022-12-22T11:45:24;11.40;99.90
23124;DHT22;11731;48.592;8.858;2022-12-22T11:48:03;11.50;99.90
23124;DHT22;11731;48.592;8.858;2022-12-22T11:50:39;11.60;99.90
23124;DHT22;11731;48.592;8.858;2022-12-22T11:53:25;11.50;99.90
23124;DHT22;11731;48.592;8.858;2022-12-22T11:56:05;11.60;99.90
23124;DHT22;11731;48.592;8.858;2022-12-22T11:58:53;11.50;99.90
23124;DHT22;11731;48.592;8.858;2022-12-22T12:01:39;11.40;99.90
23124;DHT22;11731;48.592;8.858;2022-12-22T12:04:23;11.60;99.90
23124;DHT22;11731;48.592;8.858;2022-12-22T12:07:04;11.40;99.90
23124;DHT22;11731;48.592;8.858;2022-12-22T12:09:42;11.10;99.90
23124;DHT22;11731;48.592;8.858;2022-12-22T12:12:18;10.90;99.90
23124;DHT22;11731;48.592;8.858;2022-12-22T12:14:55;10.90;99.90
23124;DHT22;11731;48.592;8.858;2022-12-22T12:17:36;10.90;99.90
23124;DHT22;11731;48.592;8.858;2022-12-22T12:20:18;10.90;99.90
23124;DHT22;11731;48.592;8.858;2022-12-22T12:23:00;10.90;99.90
23124;DHT22;11731;48.592;8.858;2022-12-22T12:25:31;10.90;99.90
23124;DHT22;11731;48.592;8.858;2022-12-22T12:28:14;11.00;99.90
23124;DHT22;11731;48.592;8.858;2022-12-22T12:30:51;10.80;99.90
23124;DHT22;11731;48.592;8.858;2022-12-22T12:33:24;10.80;99.90
23124;DHT22;11731;48.592;8.858;2022-12-22T12:35:58;10.90;99.90
23124;DHT22;11731;48.592;8.858;2022-12-22T12:38:42;10.80;99.90
23124;DHT22;11731;48.592;8.858;2022-12-22T12:41:17;10.60;99.90
23124;DHT22;11731;48.592;8.858;2022-12-22T12:43:47;10.60;99.90
23124;DHT22;11731;48.592;8.858;2022-12-22T12:46:44;10.50;99.90
23124;DHT22;11731;48.592;8.858;2022-12-22T12:49:50;10.30;99.90
23124;DHT22;11731;48.592;8.858;2022-12-22T12:52:17;10.20;99.90
23124;DHT22;11731;48.592;8.858;2022-12-22T12:54:46;10.10;99.90
23124;DHT22;11731;48.592;8.858;2022-12-22T12:57:27;10.10;99.90
23124;DHT22;11731;48.592;8.858;2022-12-22T12:59:55;10.00;99.90
23124;DHT22;11731;48.592;8.858;2022-12-22T13:02:38;10.10;99.90
23124;DHT22;11731;48.592;8.858;2022-12-22T13:05:33;10.20;99.90
23124;DHT22;11731;48.592;8.858;2022-12-22T13:08:20;10.60;99.90
23124;DHT22;11731;48.592;8.858;2022-12-22T13:11:19;10.50;99.90
23124;DHT22;11731;48.592;8.858;2022-12-22T13:13:55;10.50;99.90
23124;DHT22;11731;48.592;8.858;2022-12-22T13:16:40;10.50;99.90
23124;DHT22;11731;48.592;8.858;2022-12-22T13:19:23;10.40;99.90
23124;DHT22;11731;48.592;8.858;2022-12-22T13:21:52;10.60;99.90
23124;DHT22;11731;48.592;8.858;2022-12-22T13:24:28;10.80;99.90
23124;DHT22;11731;48.592;8.858;2022-12-22T13:27:03;10.70;99.90
23124;DHT22;11731;48.592;8.858;2022-12-22T13:29:40;10.50;99.90
23124;DHT22;11731;48.592;8.858;2022-12-22T13:32:19;10.30;99.90
23124;DHT22;11731;48.592;8.858;2022-12-22T13:34:53;10.50;99.90
23124;DHT22;11731;48.592;8.858;2022-12-22T13:37:24;10.60;99.90
23124;DHT22;11731;48.592;8.858;2022-12-22T13:40:10;10.60;99.90
23124;DHT22;11731;48.592;8.858;2022-12-22T13:42:41;10.50;99.90
23124;DHT22;11731;48.592;8.858;2022-12-22T13:45:15;10.50;99.90
23124;DHT22;11731;48.592;8.858;2022-12-22T13:47:44;10.50;99.90
23124;DHT22;11731;48.592;8.858;2022-12-22T13:50:20;10.50;99.90
23124;DHT22;11731;48.592;8.858;2022-12-22T13:52:48;10.60;99.90
23124;DHT22;11731;48.592;8.858;2022-12-22T13:55:19;10.70;99.90
23124;DHT22;11731;48.592;8.858;2022-12-22T13:57:50;10.70;99.90
23124;DHT22;11731;48.592;8.858;2022-12-22T14:00:19;10.70;99.90
23124;DHT22;11731;48.592;8.858;2022-12-22T14:02:47;10.80;99.90
23124;DHT22;11731;48.592;8.858;2022-12-22T14:05:15;10.90;99.90
23124;DHT22;11731;48.592;8.858;2022-12-22T14:07:59;10.90;99.90
23124;DHT22;11731;48.592;8.858;2022-12-22T14:10:30;10.90;99.90
23124;DHT22;11731;48.592;8.858;2022-12-22T14:13:01;10.80;99.90
23124;DHT22;11731;48.592;8.858;2022-12-22T14:15:30;10.80;99.90
23124;DHT22;11731;48.592;8.858;2022-12-22T14:17:57;11.10;99.90
23124;DHT22;11731;48.592;8.858;2022-12-22T14:20:26;11.10;99.90
23124;DHT22;11731;48.592;8.858;2022-12-22T14:22:55;11.20;99.90
23124;DHT22;11731;48.592;8.858;2022-12-22T14:25:27;11.10;99.90
23124;DHT22;11731;48.592;8.858;2022-12-22T14:27:55;10.90;99.90
23124;DHT22;11731;48.592;8.858;2022-12-22T14:30:26;10.90;99.90
23124;DHT22;11731;48.592;8.858;2022-12-22T14:32:55;10.70;99.90
23124;DHT22;11731;48.592;8.858;2022-12-22T14:35:26;10.50;99.90
23124;DHT22;11731;48.592;8.858;2022-12-22T14:37:55;10.50;99.90
23124;DHT22;11731;48.592;8.858;2022-12-22T14:40:34;10.30;99.90
23124;DHT22;11731;48.592;8.858;2022-12-22T14:43:03;10.10;99.90
23124;DHT22;11731;48.592;8.858;2022-12-22T14:45:32;10.10;99.90
23124;DHT22;11731;48.592;8.858;2022-12-22T14:47:59;10.10;99.90
23124;DHT22;11731;48.592;8.858;2022-12-22T14:50:27;10.00;99.90
23124;DHT22;11731;48.592;8.858;2022-12-22T14:52:55;10.10;99.90
23124;DHT22;11731;48.592;8.858;2022-12-22T14:55:27;10.00;99.90
23124;DHT22;11731;48.592;8.858;2022-12-22T14:57:56;10.00;99.90
23124;DHT22;11731;48.592;8.858;2022-12-22T15:00:36;9.90;99.90
23124;DHT22;11731;48.592;8.858;2022-12-22T15:03:05;9.80;99.90
23124;DHT22;11731;48.592;8.858;2022-12-22T15:05:34;9.80;99.90
23124;DHT22;11731;48.592;8.858;2022-12-22T15:08:04;9.80;99.90
23124;DHT22;11731;48.592;8.858;2022-12-22T15:10:36;9.70;99.90
23124;DHT22;11731;48.592;8.858;2022-12-22T15:13:05;9.70;99.90
23124;DHT22;11731;48.592;8.858;2022-12-22T15:15:34;9.70;99.90
23124;DHT22;11731;48.592;8.858;2022-12-22T15:18:01;9.80;99.90
23124;DHT22;11731;48.592;8.858;2022-12-22T15:20:28;9.80;99.90
23124;DHT22;11731;48.592;8.858;2022-12-22T15:22:55;9.90;99.90
23124;DHT22;11731;48.592;8.858;2022-12-22T15:25:23;9.80;99.90
23124;DHT22;11731;48.592;8.858;2022-12-22T15:27:50;9.80;99.90
23124;DHT22;11731;48.592;8.858;2022-12-22T15:30:19;9.70;99.90
23124;DHT22;11731;48.592;8.858;2022-12-22T15:32:48;9.80;99.90
23124;DHT22;11731;48.592;8.858;2022-12-22T15:35:18;9.90;99.90
23124;DHT22;11731;48.592;8.858;2022-12-22T15:37:46;9.80;99.90
23124;DHT22;11731;48.592;8.858;2022-12-22T15:40:14;9.70;99.90
23124;DHT22;11731;48.592;8.858;2022-12-22T15:42:42;9.80;99.90
23124;DHT22;11731;48.592;8.858;2022-12-22T15:45:09;9.90;99.90
23124;DHT22;11731;48.592;8.858;2022-12-22T15:47:36;9.80;99.90
23124;DHT22;11731;48.592;8.858;2022-12-22T15:50:06;9.80;99.90
23124;DHT22;11731;48.592;8.858;2022-12-22T15:52:35;9.90;99.90
23124;DHT22;11731;48.592;8.858;2022-12-22T15:55:02;9.90;99.90
23124;DHT22;11731;48.592;8.858;2022-12-22T15:57:29;9.90;99.90
23124;DHT22;11731;48.592;8.858;2022-12-22T15:59:56;9.80;99.90
23124;DHT22;11731;48.592;8.858;2022-12-22T16:02:23;9.60;99.90
23124;DHT22;11731;48.592;8.858;2022-12-22T16:04:50;9.50;99.90
23124;DHT22;11731;48.592;8.858;2022-12-22T16:07:18;9.50;99.90
23124;DHT22;11731;48.592;8.858;2022-12-22T16:09:45;9.70;99.90
23124;DHT22;11731;48.592;8.858;2022-12-22T16:12:14;9.60;99.90
23124;DHT22;11731;48.592;8.858;2022-12-22T16:14:45;9.60;99.90
23124;DHT22;11731;48.592;8.858;2022-12-22T16:17:16;9.70;99.90
23124;DHT22;11731;48.592;8.858;2022-12-22T16:19:43;9.90;99.90
23124;DHT22;11731;48.592;8.858;2022-12-22T16:22:11;10.00;99.90
23124;DHT22;11731;48.592;8.858;2022-12-22T16:24:42;10.10;99.90
23124;DHT22;11731;48.592;8.858;2022-12-22T16:27:10;10.20;99.90
23124;DHT22;11731;48.592;8.858;2022-12-22T16:29:38;10.30;99.90
23124;DHT22;11731;48.592;8.858;2022-12-22T16:32:16;10.40;99.90
23124;DHT22;11731;48.592;8.858;2022-12-22T16:34:47;10.40;99.90
23124;DHT22;11731;48.592;8.858;2022-12-22T16:37:50;10.30;99.90
23124;DHT22;11731;48.592;8.858;2022-12-22T16:40:19;10.30;99.90
23124;DHT22;11731;48.592;8.858;2022-12-22T16:42:49;10.40;99.90
23124;DHT22;11731;48.592;8.858;2022-12-22T16:45:20;10.60;99.90
23124;DHT22;11731;48.592;8.858;2022-12-22T16:47:49;10.70;99.90
23124;DHT22;11731;48.592;8.858;2022-12-22T16:50:19;10.70;99.90
23124;DHT22;11731;48.592;8.858;2022-12-22T16:52:50;10.70;99.90
23124;DHT22;11731;48.592;8.858;2022-12-22T16:55:40;11.00;99.90
23124;DHT22;11731;48.592;8.858;2022-12-22T16:58:09;11.10;99.90
23124;DHT22;11731;48.592;8.858;2022-12-22T17:00:37;11.40;99.90
23124;DHT22;11731;48.592;8.858;2022-12-22T17:03:11;11.70;99.90
23124;DHT22;11731;48.592;8.858;2022-12-22T17:05:41;12.10;99.90
23124;DHT22;11731;48.592;8.858;2022-12-22T17:08:16;12.00;99.90
23124;DHT22;11731;48.592;8.858;2022-12-22T17:10:46;12.00;99.90
23124;DHT22;11731;48.592;8.858;2022-12-22T17:13:13;12.00;99.90
23124;DHT22;11731;48.592;8.858;2022-12-22T17:15:40;11.90;99.90
23124;DHT22;11731;48.592;8.858;2022-12-22T17:18:14;11.60;99.90
23124;DHT22;11731;48.592;8.858;2022-12-22T17:20:42;11.80;99.90
23124;DHT22;11731;48.592;8.858;2022-12-22T17:23:28;11.40;99.90
23124;DHT22;11731;48.592;8.858;2022-12-22T17:25:58;11.30;99.90
23124;DHT22;11731;48.592;8.858;2022-12-22T17:28:26;11.40;99.90
23124;DHT22;11731;48.592;8.858;2022-12-22T17:30:53;11.20;99.90
23124;DHT22;11731;48.592;8.858;2022-12-22T17:33:21;11.40;99.90
23124;DHT22;11731;48.592;8.858;2022-12-22T17:35:48;11.20;99.90
23124;DHT22;11731;48.592;8.858;2022-12-22T17:38:17;11.00;99.90
23124;DHT22;11731;48.592;8.858;2022-12-22T17:40:46;11.10;99.90
23124;DHT22;11731;48.592;8.858;2022-12-22T17:43:17;11.30;99.90
23124;DHT22;11731;48.592;8.858;2022-12-22T17:45:45;11.60;99.90
23124;DHT22;11731;48.592;8.858;2022-12-22T17:48:12;11.60;99.90
23124;DHT22;11731;48.592;8.858;2022-12-22T17:50:40;11.60;99.90
23124;DHT22;11731;48.592;8.858;2022-12-22T17:53:16;11.40;99.90
23124;DHT22;11731;48.592;8.858;2022-12-22T17:55:44;11.10;99.90
23124;DHT22;11731;48.592;8.858;2022-12-22T17:58:13;11.30;99.90
23124;DHT22;11731;48.592;8.858;2022-12-22T18:00:42;11.10;99.90
23124;DHT22;11731;48.592;8.858;2022-12-22T18:03:11;10.90;99.90
23124;DHT22;11731;48.592;8.858;2022-12-22T18:05:41;10.60;99.90
23124;DHT22;11731;48.592;8.858;2022-12-22T18:08:13;10.70;99.90
23124;DHT22;11731;48.592;8.858;2022-12-22T18:10:41;11.00;99.90
23124;DHT22;11731;48.592;8.858;2022-12-22T18:13:13;11.10;99.90
23124;DHT22;11731;48.592;8.858;2022-12-22T18:15:42;11.00;99.90
23124;DHT22;11731;48.592;8.858;2022-12-22T18:18:11;11.00;99.90
23124;DHT22;11731;48.592;8.858;2022-12-22T18:20:39;11.30;99.90
23124;DHT22;11731;48.592;8.858;2022-12-22T18:23:12;11.30;99.90
23124;DHT22;11731;48.592;8.858;2022-12-22T18:25:41;11.30;99.90
23124;DHT22;11731;48.592;8.858;2022-12-22T18:28:12;11.40;99.90
23124;DHT22;11731;48.592;8.858;2022-12-22T18:30:39;11.50;99.90
23124;DHT22;11731;48.592;8.858;2022-12-22T18:33:08;11.60;99.90
23124;DHT22;11731;48.592;8.858;2022-12-22T18:35:35;11.60;99.90
23124;DHT22;11731;48.592;8.858;2022-12-22T18:38:04;11.60;99.90
23124;DHT22;11731;48.592;8.858;2022-12-22T18:40:32;11.50;99.90
23124;DHT22;11731;48.592;8.858;2022-12-22T18:43:00;11.50;99.90
23124;DHT22;11731;48.592;8.858;2022-12-22T18:45:29;11.50;99.90
23124;DHT22;11731;48.592;8.858;2022-12-22T18:47:56;11.70;99.90
23124;DHT22;11731;48.592;8.858;2022-12-22T18:50:27;11.80;99.90
23124;DHT22;11731;48.592;8.858;2022-12-22T18:52:54;11.80;99.90
23124;DHT22;11731;48.592;8.858;2022-12-22T18:55:24;11.70;99.90
23124;DHT22;11731;48.592;8.858;2022-12-22T18:57:52;11.30;99.90
23124;DHT22;11731;48.592;8.858;2022-12-22T19:00:21;11.20;99.90
23124;DHT22;11731;48.592;8.858;2022-12-22T19:02:50;11.10;99.90
23124;DHT22;11731;48.592;8.858;2022-12-22T19:05:19;10.90;99.90
23124;DHT22;11731;48.592;8.858;2022-12-22T19:07:49;11.00;99.90
23124;DHT22;11731;48.592;8.858;2022-12-22T19:10:18;10.60;99.90
23124;DHT22;11731;48.592;8.858;2022-12-22T19:12:48;10.30;99.90
23124;DHT22;11731;48.592;8.858;2022-12-22T19:15:20;10.30;99.90
23124;DHT22;11731;48.592;8.858;2022-12-22T19:17:49;10.20;99.90
23124;DHT22;11731;48.592;8.858;2022-12-22T19:20:19;10.20;99.90
23124;DHT22;11731;48.592;8.858;2022-12-22T19:22:48;10.40;99.90
23124;DHT22;11731;48.592;8.858;2022-12-22T19:25:18;10.40;99.90
23124;DHT22;11731;48.592;8.858;2022-12-22T19:27:46;10.40;99.90
23124;DHT22;11731;48.592;8.858;2022-12-22T19:30:16;10.40;99.90
23124;DHT22;11731;48.592;8.858;2022-12-22T19:32:45;10.30;99.90
23124;DHT22;11731;48.592;8.858;2022-12-22T19:35:15;10.40;99.90
23124;DHT22;11731;48.592;8.858;2022-12-22T19:37:43;10.50;99.90
23124;DHT22;11731;48.592;8.858;2022-12-22T19:40:13;10.80;99.90
23124;DHT22;11731;48.592;8.858;2022-12-22T19:42:43;11.30;99.90
23124;DHT22;11731;48.592;8.858;2022-12-22T19:45:15;11.60;99.90
23124;DHT22;11731;48.592;8.858;2022-12-22T19:47:42;11.80;99.90
23124;DHT22;11731;48.592;8.858;2022-12-22T19:50:15;11.80;99.90
23124;DHT22;11731;48.592;8.858;2022-12-22T19:52:42;11.90;99.90
23124;DHT22;11731;48.592;8.858;2022-12-22T19:55:10;12.00;99.90
23124;DHT22;11731;48.592;8.858;2022-12-22T19:57:39;11.90;99.90
23124;DHT22;11731;48.592;8.858;2022-12-22T20:00:24;11.90;99.90
23124;DHT22;11731;48.592;8.858;2022-12-22T20:02:52;11.90;99.90
23124;DHT22;11731;48.592;8.858;2022-12-22T20:05:28;12.00;99.90
23124;DHT22;11731;48.592;8.858;2022-12-22T20:08:00;12.10;99.90
23124;DHT22;11731;48.592;8.858;2022-12-22T20:10:29;12.10;99.90
23124;DHT22;11731;48.592;8.858;2022-12-22T20:13:00;11.90;99.90
23124;DHT22;11731;48.592;8.858;2022-12-22T20:15:29;11.80;99.90
23124;DHT22;11731;48.592;8.858;2022-12-22T20:17:57;11.80;99.90
23124;DHT22;11731;48.592;8.858;2022-12-22T20:20:30;11.80;99.90
23124;DHT22;11731;48.592;8.858;2022-12-22T20:23:02;11.80;99.90
23124;DHT22;11731;48.592;8.858;2022-12-22T20:25:33;11.80;99.90
23124;DHT22;11731;48.592;8.858;2022-12-22T20:28:11;11.60;99.90
23124;DHT22;11731;48.592;8.858;2022-12-22T20:30:39;11.10;99.90
23124;DHT22;11731;48.592;8.858;2022-12-22T20:33:06;10.90;99.90
23124;DHT22;11731;48.592;8.858;2022-12-22T20:35:34;10.90;99.90
23124;DHT22;11731;48.592;8.858;2022-12-22T20:38:10;10.90;99.90
23124;DHT22;11731;48.592;8.858;2022-12-22T20:40:37;10.80;99.90
23124;DHT22;11731;48.592;8.858;2022-12-22T20:43:11;10.70;99.90
23124;DHT22;11731;48.592;8.858;2022-12-22T20:45:39;10.50;99.90
23124;DHT22;11731;48.592;8.858;2022-12-22T20:48:12;10.00;99.90
23124;DHT22;11731;48.592;8.858;2022-12-22T20:50:42;9.70;99.90
23124;DHT22;11731;48.592;8.858;2022-12-22T20:53:14;9.70;99.90
23124;DHT22;11731;48.592;8.858;2022-12-22T20:55:41;9.80;99.90
23124;DHT22;11731;48.592;8.858;2022-12-22T20:58:14;9.90;99.90
23124;DHT22;11731;48.592;8.858;2022-12-22T21:00:42;10.20;99.90
23124;DHT22;11731;48.592;8.858;2022-12-22T21:03:09;10.10;99.90
23124;DHT22;11731;48.592;8.858;2022-12-22T21:05:36;10.10;99.90
23124;DHT22;11731;48.592;8.858;2022-12-22T21:08:05;10.00;99.90
23124;DHT22;11731;48.592;8.858;2022-12-22T21:10:32;10.00;99.90